Time;durP1;ratioP1;P1;durP2;ratioP2;P2;SDS_P1;SDS_P2;PMS_P1;PMS_P2;Temp;Humidity;BMP_temperature;BMP_pressure;BME280_temperature;BME280_humidity;BME280_pressure;Samples;Min_cycle;Max_cycle;Signal;HPM_P1;HPM_P2
2021/05/09 00:02:45;;;;;;;1.30;1.20;;;;;;;8.96;81.76;98718.22;2020026;78;21248;-74
2021/05/09 00:05:47;;;;;;;1.79;1.20;;;;;;;8.97;81.57;98708.72;2021873;80;20593;-74
2021/05/09 00:08:49;;;;;;;5.29;1.20;;;;;;;8.95;81.41;98711.34;2021304;80;20189;-75
2021/05/09 00:11:51;;;;;;;1.59;1.04;;;;;;;8.95;81.34;98716.50;2021309;80;20240;-75
2021/05/09 00:14:53;;;;;;;2.06;1.10;;;;;;;8.94;81.13;98712.22;2022296;80;20178;-74
2021/05/09 00:17:54;;;;;;;1.27;1.17;;;;;;;8.92;80.98;98708.78;2020589;78;21695;-75
2021/05/09 00:20:57;;;;;;;2.79;1.20;;;;;;;8.90;80.92;98707.09;2021716;80;20192;-76
2021/05/09 00:23:59;;;;;;;1.20;1.10;;;;;;;8.87;80.91;98705.38;2021298;80;20187;-75
2021/05/09 00:27:01;;;;;;;1.45;1.35;;;;;;;8.77;81.01;98702.00;2021591;80;20702;-75
2021/05/09 00:30:04;;;;;;;2.19;1.50;;;;;;;8.74;81.04;98698.59;2021130;80;20171;-75
2021/05/09 00:33:06;;;;;;;2.54;1.20;;;;;;;8.70;81.34;98694.31;2016178;78;20199;-75
2021/05/09 00:36:07;;;;;;;1.25;1.13;;;;;;;8.64;81.59;98686.59;2015983;80;20172;-74
2021/05/09 00:39:09;;;;;;;2.53;1.40;;;;;;;8.62;81.66;98689.22;2015792;80;20971;-75
2021/05/09 00:42:11;;;;;;;4.51;1.79;;;;;;;8.62;81.80;98685.75;2016484;80;20212;-74
2021/05/09 00:45:13;;;;;;;1.49;1.30;;;;;;;8.64;81.60;98678.84;2015185;80;21809;-74
2021/05/09 00:48:16;;;;;;;1.21;1.11;;;;;;;8.62;81.45;98680.59;2021566;80;20196;-75
2021/05/09 00:51:18;;;;;;;1.30;1.20;;;;;;;8.55;81.19;98672.00;2024048;80;20181;-74
2021/05/09 00:54:22;;;;;;;2.29;1.24;;;;;;;8.54;80.98;98672.88;2021656;80;20226;-75
2021/05/09 00:57:25;;;;;;;2.09;1.34;;;;;;;8.53;81.14;98667.72;2021764;80;20159;-74
2021/05/09 01:00:26;;;;;;;1.31;1.21;;;;;;;8.51;81.25;98667.72;2020115;78;20906;-74
2021/05/09 01:03:31;;;;;;;1.31;1.21;;;;;;;8.52;81.42;98659.09;2016873;80;20168;-75
2021/05/09 01:06:33;;;;;;;1.30;1.16;;;;;;;8.46;81.62;98664.31;2017015;80;20652;-74
2021/05/09 01:09:34;;;;;;;1.79;1.30;;;;;;;8.42;81.60;98665.19;2017046;80;20205;-74
2021/05/09 01:12:37;;;;;;;1.29;1.19;;;;;;;8.41;81.51;98666.91;2017001;80;21091;-75
2021/05/09 01:15:38;;;;;;;1.30;1.16;;;;;;;8.32;81.72;98666.13;2017380;78;20221;-77
2021/05/09 01:18:40;;;;;;;3.45;1.13;;;;;;;8.31;81.67;98657.50;2022665;80;20658;-73
2021/05/09 01:21:42;;;;;;;2.61;1.20;;;;;;;8.35;81.37;98648.00;2021895;80;20186;-76
2021/05/09 01:24:43;;;;;;;2.40;1.77;;;;;;;8.35;81.59;98648.88;2022706;80;20159;-74
2021/05/09 01:27:45;;;;;;;2.14;1.10;;;;;;;8.34;81.52;98647.16;2022643;80;20194;-75
2021/05/09 01:30:46;;;;;;;1.05;0.95;;;;;;;8.29;81.59;98643.72;2021817;77;20853;-74
2021/05/09 01:33:48;;;;;;;2.81;1.42;;;;;;;8.22;81.72;98638.59;2022135;80;20373;-76
2021/05/09 01:36:50;;;;;;;3.06;1.02;;;;;;;8.23;81.84;98641.16;2021906;80;20193;-74
2021/05/09 01:39:52;;;;;;;1.30;1.16;;;;;;;8.18;81.72;98627.41;2022296;80;20206;-74
2021/05/09 01:42:53;;;;;;;1.51;1.16;;;;;;;8.16;81.69;98637.75;2022183;80;20196;-75
2021/05/09 01:45:55;;;;;;;1.16;1.04;;;;;;;8.18;81.64;98641.19;2019537;78;21992;-74
2021/05/09 01:48:57;;;;;;;1.66;1.31;;;;;;;8.19;81.66;98634.28;2016969;80;20207;-75
2021/05/09 01:51:59;;;;;;;2.40;1.66;;;;;;;8.18;81.67;98632.59;2016608;80;20334;-73
2021/05/09 01:55:03;;;;;;;2.60;0.96;;;;;;;8.14;81.71;98633.47;2017093;80;20211;-75
2021/05/09 01:58:05;;;;;;;1.80;0.99;;;;;;;8.11;81.82;98631.78;2016652;80;20610;-75
2021/05/09 02:01:06;;;;;;;3.04;1.20;;;;;;;8.06;81.91;98624.91;2017893;78;22584;-74
2021/05/09 02:04:08;;;;;;;1.00;0.90;;;;;;;8.02;81.95;98623.22;2023362;80;20191;-75
2021/05/09 02:07:10;;;;;;;0.93;0.93;;;;;;;8.02;81.66;98618.03;2023317;80;20172;-74
2021/05/09 02:10:12;;;;;;;1.65;1.11;;;;;;;7.98;81.84;98619.78;2023471;80;20217;-74
2021/05/09 02:13:13;;;;;;;4.88;1.24;;;;;;;7.97;81.94;98609.47;2023548;80;20168;-75
2021/05/09 02:16:15;;;;;;;1.16;0.80;;;;;;;7.96;82.06;98618.09;2020125;78;22832;-74
2021/05/09 02:19:16;;;;;;;0.90;0.90;;;;;;;7.95;82.17;98621.53;2018498;80;20164;-75
2021/05/09 02:22:18;;;;;;;1.13;0.96;;;;;;;7.92;82.28;98608.66;2018693;80;20318;-74
2021/05/09 02:25:20;;;;;;;0.95;0.90;;;;;;;7.89;82.19;98609.50;2017487;80;20196;-74
2021/05/09 02:28:22;;;;;;;2.21;0.90;;;;;;;7.86;82.15;98607.78;2018405;80;20187;-74
2021/05/09 02:31:23;;;;;;;0.91;0.77;;;;;;;7.85;82.25;98600.06;2020429;77;22650;-75
2021/05/09 02:34:25;;;;;;;0.84;0.80;;;;;;;7.85;82.45;98603.50;2023846;80;20878;-75
2021/05/09 02:37:27;;;;;;;0.99;0.80;;;;;;;7.85;82.50;98590.56;2023384;80;20619;-75
2021/05/09 02:40:28;;;;;;;1.06;0.74;;;;;;;7.84;82.66;98598.34;2023522;80;20220;-74
2021/05/09 02:43:30;;;;;;;1.91;1.08;;;;;;;7.82;82.71;98590.59;2023711;80;20179;-76
2021/05/09 02:46:32;;;;;;;1.65;0.90;;;;;;;7.81;82.67;98593.19;2019797;80;21969;-75
2021/05/09 02:49:34;;;;;;;1.16;0.90;;;;;;;7.78;82.77;98591.50;2018419;80;20325;-75
2021/05/09 02:52:36;;;;;;;1.13;1.06;;;;;;;7.76;83.12;98592.38;2018877;80;20194;-75
2021/05/09 02:55:37;;;;;;;1.23;1.05;;;;;;;7.74;83.02;98583.78;2021667;80;20213;-74
2021/05/09 02:58:39;;;;;;;1.25;1.00;;;;;;;7.72;83.06;98581.22;2018579;80;20601;-74
2021/05/09 03:01:40;;;;;;;1.45;1.26;;;;;;;7.68;83.10;98589.81;2019914;78;20207;-75
2021/05/09 03:04:42;;;;;;;2.16;1.23;;;;;;;7.64;83.24;98582.97;2022817;80;20939;-74
2021/05/09 03:07:44;;;;;;;1.25;1.16;;;;;;;7.63;83.50;98580.38;2022556;80;20363;-74
2021/05/09 03:10:45;;;;;;;1.16;1.06;;;;;;;7.63;83.47;98585.56;2021913;80;20190;-75
2021/05/09 03:13:47;;;;;;;1.31;1.23;;;;;;;7.62;83.65;98584.69;2021957;80;20357;-74
2021/05/09 03:16:49;;;;;;;2.65;1.26;;;;;;;7.60;83.58;98583.00;2018134;78;20849;-74
2021/05/09 03:19:50;;;;;;;1.40;1.30;;;;;;;7.61;83.61;98584.72;2016622;80;20711;-75
2021/05/09 03:22:53;;;;;;;1.25;1.10;;;;;;;7.57;83.44;98582.16;2017139;80;20191;-75
2021/05/09 03:25:54;;;;;;;1.58;1.39;;;;;;;7.53;83.31;98580.41;2016667;80;20403;-74
2021/05/09 03:28:56;;;;;;;1.60;1.50;;;;;;;7.51;83.23;98584.75;2016980;80;21253;-74
2021/05/09 03:31:57;;;;;;;1.77;1.51;;;;;;;7.49;83.21;98585.63;2019286;78;20329;-74
2021/05/09 03:34:59;;;;;;;1.46;1.31;;;;;;;7.45;83.21;98582.19;2021551;80;20285;-74
2021/05/09 03:38:02;;;;;;;1.23;1.13;;;;;;;7.42;83.34;98579.63;2021652;80;20312;-74
2021/05/09 03:41:03;;;;;;;1.50;1.20;;;;;;;7.38;83.19;98577.94;2021610;80;20686;-74
2021/05/09 03:44:06;;;;;;;1.04;1.01;;;;;;;7.34;83.26;98575.34;2021960;80;20808;-74
2021/05/09 03:47:07;;;;;;;1.70;1.10;;;;;;;7.32;83.37;98577.09;2017559;78;20183;-75
2021/05/09 03:50:09;;;;;;;1.61;1.51;;;;;;;7.31;83.26;98583.13;2016810;80;20385;-75
2021/05/09 03:53:13;;;;;;;1.19;1.09;;;;;;;7.30;83.03;98578.81;2016857;80;20309;-75
2021/05/09 03:56:15;;;;;;;1.35;1.00;;;;;;;7.27;82.92;98571.97;2016855;80;20666;-75
2021/05/09 03:59:16;;;;;;;1.10;0.90;;;;;;;7.26;82.79;98578.84;2016569;80;20320;-74
2021/05/09 04:02:18;;;;;;;2.01;1.02;;;;;;;7.20;82.85;98573.72;2020976;78;20199;-74
2021/05/09 04:05:20;;;;;;;3.01;0.91;;;;;;;7.19;82.92;98574.59;2022307;80;20324;-74
2021/05/09 04:08:28;;;;;;;1.20;1.10;;;;;;;7.19;82.97;98573.72;2021620;80;21192;-75
2021/05/09 04:11:30;;;;;;;1.52;1.08;;;;;;;7.18;83.13;98572.88;2021584;80;20902;-75
2021/05/09 04:14:33;;;;;;;1.17;1.05;;;;;;;7.18;83.17;98572.88;2022321;80;20211;-75
2021/05/09 04:17:34;;;;;;;1.33;1.23;;;;;;;7.17;83.04;98571.13;2016859;78;21730;-75
2021/05/09 04:20:37;;;;;;;1.49;1.06;;;;;;;7.18;83.04;98564.25;2016225;80;20726;-75
2021/05/09 04:23:39;;;;;;;1.59;1.01;;;;;;;7.18;83.17;98565.13;2016319;80;20350;-77
2021/05/09 04:26:40;;;;;;;1.70;1.10;;;;;;;7.15;83.17;98559.09;2016879;80;20374;-74
2021/05/09 04:29:42;;;;;;;1.08;0.91;;;;;;;7.15;83.31;98556.50;2016852;80;20422;-77
2021/05/09 04:32:43;;;;;;;1.24;0.90;;;;;;;7.19;83.33;98569.41;2020555;78;20605;-75
2021/05/09 04:35:45;;;;;;;1.58;1.11;;;;;;;7.21;83.36;98561.66;2025410;80;20333;-75
2021/05/09 04:38:47;;;;;;;2.26;0.99;;;;;;;7.23;83.47;98558.22;2021652;80;20629;-75
2021/05/09 04:41:49;;;;;;;1.49;1.00;;;;;;;7.29;83.41;98567.63;2022228;80;20339;-75
2021/05/09 04:44:51;;;;;;;1.02;0.90;;;;;;;7.30;83.57;98566.78;2021455;80;20793;-75
2021/05/09 04:47:52;;;;;;;1.11;0.98;;;;;;;7.31;83.77;98570.22;2016866;78;20226;-75
2021/05/09 04:50:54;;;;;;;3.04;1.81;;;;;;;7.37;83.77;98570.22;2016473;80;20188;-75
2021/05/09 04:53:55;;;;;;;1.26;0.98;;;;;;;7.42;83.84;98565.88;2016262;80;20163;-76
2021/05/09 04:56:57;;;;;;;0.90;0.90;;;;;;;7.53;84.05;98569.22;2016463;80;20211;-75
2021/05/09 04:59:59;;;;;;;0.99;0.99;;;;;;;7.67;84.07;98566.56;2016476;80;20176;-75
2021/05/09 05:03:03;;;;;;;0.86;0.86;;;;;;;7.86;84.02;98558.69;2011243;78;25589;-76
2021/05/09 05:06:05;;;;;;;1.61;0.88;;;;;;;8.12;83.78;98566.28;2011340;80;20298;-75
2021/05/09 05:09:07;;;;;;;2.20;0.75;;;;;;;8.40;83.62;98563.47;2011390;80;20588;-75
2021/05/09 05:12:09;;;;;;;1.39;0.98;;;;;;;8.69;82.92;98570.97;2014180;80;20194;-75
2021/05/09 05:15:11;;;;;;;1.14;0.96;;;;;;;8.88;82.37;98569.88;2012183;80;20966;-76
2021/05/09 05:18:13;;;;;;;3.97;0.95;;;;;;;8.97;82.49;98564.59;2023851;80;20191;-75
2021/05/09 05:21:14;;;;;;;1.30;1.20;;;;;;;9.08;82.37;98567.94;2022579;80;20155;-76
2021/05/09 05:24:17;;;;;;;2.96;1.10;;;;;;;9.45;81.57;98571.78;2021604;80;20677;-77
2021/05/09 05:27:18;;;;;;;2.21;1.05;;;;;;;9.51;81.33;98566.53;2020003;80;20216;-75
2021/05/09 05:30:21;;;;;;;1.84;1.20;;;;;;;9.62;81.24;98557.72;2020644;78;22015;-75
2021/05/09 05:33:28;;;;;;;1.94;1.08;;;;;;;10.20;80.38;98550.81;2016326;80;20187;-75
2021/05/09 05:36:32;;;;;;;1.44;0.95;;;;;;;10.93;77.34;98554.72;2015762;80;20198;-76
2021/05/09 05:39:34;;;;;;;0.88;0.86;;;;;;;11.39;75.63;98552.06;2016638;80;20172;-76
2021/05/09 05:42:37;;;;;;;1.25;0.98;;;;;;;11.80;74.12;98551.16;2016943;80;20189;-75
2021/05/09 05:45:38;;;;;;;1.46;1.10;;;;;;;12.24;72.59;98551.03;2016477;77;20248;-76
2021/05/09 05:48:42;;;;;;;1.83;1.13;;;;;;;12.64;70.77;98554.31;2022506;80;20178;-75
2021/05/09 05:51:45;;;;;;;2.30;1.20;;;;;;;13.02;70.01;98542.00;2022764;80;20192;-75
2021/05/09 05:54:46;;;;;;;3.04;1.24;;;;;;;13.41;69.26;98542.63;2022999;80;20201;-74
2021/05/09 05:57:48;;;;;;;1.50;0.91;;;;;;;13.83;68.13;98542.25;2022330;80;20735;-74
2021/05/09 06:00:50;;;;;;;2.06;0.94;;;;;;;14.24;68.20;98543.53;2021335;80;24917;-74
2021/05/09 06:03:52;;;;;;;2.71;1.00;;;;;;;14.61;67.64;98537.97;2022835;80;20691;-74
2021/05/09 06:06:53;;;;;;;1.73;1.23;;;;;;;15.06;66.75;98530.25;2022640;80;20225;-74
2021/05/09 06:09:58;;;;;;;1.92;1.04;;;;;;;15.28;66.28;98537.34;2022879;80;20220;-74
2021/05/09 06:13:00;;;;;;;1.89;1.29;;;;;;;15.65;65.54;98529.81;2022665;80;20192;-73
2021/05/09 06:16:02;;;;;;;2.46;1.14;;;;;;;16.14;64.14;98517.38;2020564;78;21066;-73
2021/05/09 06:19:04;;;;;;;2.71;1.15;;;;;;;16.76;63.19;98515.69;2017831;80;20230;-73
2021/05/09 06:22:05;;;;;;;5.86;2.01;;;;;;;17.37;61.11;98519.03;2017126;80;20192;-72
2021/05/09 06:25:08;;;;;;;2.70;1.10;;;;;;;17.92;60.31;98518.25;2016499;80;20176;-72
2021/05/09 06:28:09;;;;;;;2.97;1.17;;;;;;;18.39;59.33;98519.41;2018059;80;20193;-74
2021/05/09 06:31:12;;;;;;;2.92;0.90;;;;;;;18.83;57.69;98518.09;2019150;78;22201;-72
2021/05/09 06:34:13;;;;;;;4.57;0.90;;;;;;;19.23;56.56;98522.13;2022365;80;20191;-74
2021/05/09 06:37:16;;;;;;;0.93;0.80;;;;;;;19.47;56.17;98515.53;2022595;80;20187;-72
2021/05/09 06:40:20;;;;;;;0.99;0.52;;;;;;;19.76;55.11;98510.50;2023007;80;20200;-74
2021/05/09 06:43:22;;;;;;;1.09;0.60;;;;;;;20.06;54.07;98507.91;2022643;80;20179;-73
2021/05/09 06:46:24;;;;;;;5.05;0.75;;;;;;;20.37;53.59;98509.63;2019610;78;21912;-73
2021/05/09 06:49:27;;;;;;;1.73;0.60;;;;;;;20.54;53.26;98500.75;2016974;80;20191;-73
2021/05/09 06:52:28;;;;;;;1.40;0.55;;;;;;;20.76;52.23;98503.81;2017782;80;20191;-75
2021/05/09 06:55:30;;;;;;;2.04;0.50;;;;;;;20.91;50.69;98508.16;2017387;80;20278;-75
2021/05/09 06:58:32;;;;;;;2.14;0.70;;;;;;;21.02;51.10;98500.44;2018431;80;20766;-78
2021/05/09 07:01:34;;;;;;;0.94;0.60;;;;;;;21.34;50.22;98503.75;2019232;80;21305;-76
2021/05/09 07:04:35;;;;;;;2.42;0.64;;;;;;;21.66;48.96;98490.31;2022899;80;20264;-76
2021/05/09 07:07:47;;;;;;;4.21;0.71;;;;;;;21.98;48.81;98490.88;2022685;80;20167;-74
2021/05/09 07:10:48;;;;;;;3.65;0.60;;;;;;;22.36;47.87;98492.81;2022756;80;20183;-74
2021/05/09 07:13:50;;;;;;;0.90;0.49;;;;;;;22.43;45.84;98481.72;2022655;80;20175;-75
2021/05/09 07:16:52;;;;;;;0.82;0.50;;;;;;;22.45;46.49;98471.91;2021406;78;22456;-74
2021/05/09 07:19:54;;;;;;;2.06;0.43;;;;;;;22.53;45.91;98469.56;2023266;80;20199;-74
2021/05/09 07:22:57;;;;;;;2.30;0.60;;;;;;;22.39;46.30;98468.81;2022112;80;20209;-74
2021/05/09 07:25:59;;;;;;;0.44;0.40;;;;;;;22.48;45.60;98460.25;2022434;80;20436;-75
2021/05/09 07:29:00;;;;;;;1.38;0.49;;;;;;;22.74;45.93;98472.53;2022314;80;20221;-73
2021/05/09 07:32:02;;;;;;;3.72;0.50;;;;;;;22.96;45.67;98465.78;2017377;79;62815;-75
2021/05/09 07:35:04;;;;;;;1.85;0.54;;;;;;;22.97;44.09;98468.34;2016842;80;20208;-73
2021/05/09 07:38:08;;;;;;;2.22;0.50;;;;;;;23.23;44.17;98463.03;2016811;80;20280;-73
2021/05/09 07:41:10;;;;;;;2.99;0.50;;;;;;;23.49;43.49;98457.53;2016812;80;20164;-72
2021/05/09 07:44:12;;;;;;;1.00;0.50;;;;;;;23.71;42.44;98470.13;2017225;80;20245;-72
2021/05/09 07:47:13;;;;;;;2.46;0.40;;;;;;;23.73;41.41;98462.91;2020315;80;22557;-72
2021/05/09 07:50:17;;;;;;;3.66;0.50;;;;;;;23.93;41.53;98460.59;2022325;80;20304;-73
2021/05/09 07:53:19;;;;;;;3.30;0.76;;;;;;;23.99;41.22;98458.34;2022164;80;20195;-74
2021/05/09 07:56:21;;;;;;;2.80;0.47;;;;;;;24.18;40.07;98446.34;2022668;80;20175;-72
2021/05/09 07:59:22;;;;;;;4.16;0.41;;;;;;;24.27;40.09;98451.81;2022301;80;20199;-70
2021/05/09 08:02:24;;;;;;;0.88;0.30;;;;;;;24.31;38.69;98450.66;2017783;78;21132;-72
2021/05/09 08:05:28;;;;;;;1.40;0.40;;;;;;;24.28;39.83;98444.72;2017856;80;21122;-73
2021/05/09 08:08:31;;;;;;;1.73;0.40;;;;;;;24.10;39.17;98438.97;2017054;80;20171;-73
2021/05/09 08:11:33;;;;;;;1.86;0.40;;;;;;;24.25;39.68;98437.00;2017037;80;20241;-75
2021/05/09 08:14:34;;;;;;;2.01;0.49;;;;;;;24.65;39.51;98432.16;2017576;80;20213;-72
2021/05/09 08:17:36;;;;;;;0.95;0.41;;;;;;;24.92;38.55;98429.16;2020806;78;29253;-71
2021/05/09 08:20:38;;;;;;;3.35;0.75;;;;;;;25.04;38.13;98416.75;2022570;80;20560;-71
2021/05/09 08:23:44;;;;;;;1.39;0.50;;;;;;;25.12;38.67;98409.84;2021858;80;20909;-70
2021/05/09 08:26:45;;;;;;;2.67;0.40;;;;;;;25.03;38.24;98410.59;2022750;80;20213;-70
2021/05/09 08:29:47;;;;;;;3.40;0.40;;;;;;;25.06;37.92;98415.66;2022582;80;20472;-71
2021/05/09 08:32:50;;;;;;;1.20;0.55;;;;;;;24.75;37.45;98409.22;2016447;78;22528;-73
2021/05/09 08:35:51;;;;;;;1.01;0.38;;;;;;;24.80;38.76;98403.56;2016901;80;20171;-72
2021/05/09 08:38:53;;;;;;;1.59;0.50;;;;;;;24.86;37.84;98398.63;2017016;80;20191;-70
2021/05/09 08:41:55;;;;;;;2.88;0.39;;;;;;;24.87;38.28;98397.66;2017150;80;20167;-73
2021/05/09 08:44:56;;;;;;;3.01;0.50;;;;;;;24.96;37.27;98404.06;2016890;80;20188;-72
2021/05/09 08:47:58;;;;;;;0.96;0.35;;;;;;;24.92;36.90;98398.13;2016794;78;23462;-72
2021/05/09 08:51:03;;;;;;;2.25;0.50;;;;;;;25.16;36.46;98382.09;2016609;80;20167;-70
2021/05/09 08:54:06;;;;;;;2.81;0.50;;;;;;;25.43;37.33;98389.63;2017101;80;20179;-71
2021/05/09 08:57:07;;;;;;;4.21;0.41;;;;;;;25.66;36.10;98393.06;2020023;80;20205;-70
2021/05/09 09:00:11;;;;;;;2.58;0.32;;;;;;;25.87;35.89;98375.41;2016845;80;20193;-68
2021/05/09 09:03:33;;;;;;;2.94;0.50;;;;;;;26.19;35.04;98375.31;2023237;80;20211;-72
2021/05/09 09:06:42;;;;;;;1.54;0.41;;;;;;;26.41;34.74;98382.41;2022671;80;20194;-72
2021/05/09 09:09:48;;;;;;;1.26;0.50;;;;;;;26.43;34.63;98383.09;2022385;80;20170;-70
2021/05/09 09:12:54;;;;;;;1.27;0.50;;;;;;;26.47;33.71;98397.84;2021310;80;20210;-70
2021/05/09 09:15:58;;;;;;;3.91;1.19;;;;;;;26.38;33.78;98371.97;2019679;78;22072;-70
2021/05/09 09:19:08;;;;;;;2.79;0.46;;;;;;;26.42;32.85;98359.28;2016484;80;20587;-73
2021/05/09 09:22:09;;;;;;;2.61;0.40;;;;;;;26.59;33.22;98360.50;2017849;80;20168;-72
2021/05/09 09:25:11;;;;;;;1.39;0.40;;;;;;;26.54;33.03;98349.38;2017410;80;20654;-74
2021/05/09 09:28:13;;;;;;;1.88;0.60;;;;;;;26.48;32.98;98367.56;2013361;80;20211;-72
2021/05/09 09:31:14;;;;;;;2.06;0.47;;;;;;;26.36;32.90;98354.44;2016367;78;21043;-71
2021/05/09 09:34:16;;;;;;;2.53;0.36;;;;;;;26.53;34.21;98359.19;2017942;80;21121;-67
2021/05/09 09:37:19;;;;;;;3.16;0.46;;;;;;;26.46;33.04;98345.56;2015843;80;20168;-71
2021/05/09 09:40:21;;;;;;;5.43;0.50;;;;;;;26.32;32.80;98337.03;2017546;80;20197;-72
2021/05/09 09:43:22;;;;;;;2.44;0.46;;;;;;;26.24;32.64;98355.50;2017921;80;20213;-74
2021/05/09 09:46:27;;;;;;;0.60;0.30;;;;;;;26.38;32.75;98341.84;2018995;80;23747;-74
2021/05/09 09:49:31;;;;;;;3.24;0.47;;;;;;;26.47;32.86;98349.06;2022095;80;20267;-72
2021/05/09 09:52:34;;;;;;;1.15;0.40;;;;;;;26.48;33.22;98350.75;2021337;80;20420;-75
2021/05/09 09:55:36;;;;;;;6.13;0.40;;;;;;;26.73;32.40;98357.44;2022423;80;20206;-71
2021/05/09 09:58:54;;;;;;;1.35;0.66;;;;;;;26.88;32.59;98337.47;2022556;80;20273;-70
2021/05/09 10:01:57;;;;;;;4.31;0.64;;;;;;;27.15;32.29;98350.22;2018469;78;20200;-73
2021/05/09 10:04:59;;;;;;;3.35;0.40;;;;;;;27.15;32.49;98326.22;2017721;80;20171;-75
2021/05/09 10:08:01;;;;;;;0.66;0.38;;;;;;;27.29;31.65;98339.16;2016567;80;20192;-74
2021/05/09 10:11:04;;;;;;;4.18;0.73;;;;;;;27.15;32.07;98331.56;2015453;80;20213;-71
2021/05/09 10:14:07;;;;;;;4.14;0.57;;;;;;;27.39;32.18;98333.81;2015350;80;20172;-71
2021/05/09 10:17:10;;;;;;;2.25;0.40;;;;;;;27.33;31.21;98315.72;2019424;78;22835;-71
2021/05/09 10:20:12;;;;;;;2.76;0.40;;;;;;;27.53;31.55;98311.25;2022292;80;20733;-70
2021/05/09 10:23:21;;;;;;;2.13;0.41;;;;;;;27.92;31.39;98306.75;2022628;80;20549;-73
2021/05/09 10:26:30;;;;;;;4.29;0.46;;;;;;;27.92;30.91;98325.44;2022349;80;20204;-72
2021/05/09 10:29:38;;;;;;;10.15;0.69;;;;;;;27.65;30.37;98316.34;2022705;80;20171;-71
2021/05/09 10:32:44;;;;;;;3.59;0.64;;;;;;;27.71;29.70;98333.59;2021165;77;20294;-80
2021/05/09 10:35:51;;;;;;;3.65;0.60;;;;;;;27.74;29.70;98327.97;2021365;80;20183;-72
2021/05/09 10:39:09;;;;;;;4.53;2.44;;;;;;;27.83;30.38;98334.28;2022007;80;20187;-84
2021/05/09 10:42:13;;;;;;;124.51;113.37;;;;;;;27.87;28.88;98349.88;2022385;80;20300;-75
2021/05/09 10:45:28;;;;;;;17.95;16.40;;;;;;;27.71;29.70;98335.44;2020948;78;37283;-73
2021/05/09 10:48:33;;;;;;;23.46;21.59;;;;;;;27.31;29.94;98325.69;2017363;80;20717;-74
2021/05/09 10:51:34;;;;;;;10.94;6.00;;;;;;;27.19;30.41;98335.63;2017138;80;20191;-72
2021/05/09 10:54:42;;;;;;;4.97;1.95;;;;;;;27.10;30.81;98307.94;2017128;80;20168;-68
2021/05/09 10:57:47;;;;;;;8.77;7.57;;;;;;;27.38;30.82;98332.16;2016906;80;20821;-75
2021/05/09 11:00:57;;;;;;;4.63;1.46;;;;;;;27.70;30.88;98334.59;2016300;80;20168;-78
2021/05/09 11:04:00;;;;;;;15.57;14.11;;;;;;;28.01;30.37;98335.28;2017208;80;21004;-74
2021/05/09 11:07:02;;;;;;;659.54;598.70;;;;;;;28.55;30.53;98323.94;2017255;80;20220;-74
2021/05/09 11:10:29;;;;;;;264.89;239.66;;;;;;;28.88;29.92;98327.88;2016190;80;20203;-76
2021/05/09 11:13:30;;;;;;;368.89;336.16;;;;;;;28.77;29.42;98335.22;2019708;80;20201;-75
2021/05/09 11:16:37;;;;;;;164.24;150.65;;;;;;;28.29;29.43;98336.22;2018949;77;20684;-76
2021/05/09 11:19:43;;;;;;;826.51;740.99;;;;;;;28.13;29.56;98327.94;2022490;80;20677;-77
2021/05/09 11:22:45;;;;;;;243.54;214.51;;;;;;;28.32;29.98;98313.72;2023122;80;20197;-77
2021/05/09 11:25:47;;;;;;;107.10;98.16;;;;;;;28.82;28.79;98316.91;2022034;80;20175;-74
2021/05/09 11:29:05;;;;;;;40.39;36.92;;;;;;;29.60;27.96;98323.50;2022301;80;20228;-77
2021/05/09 11:32:11;;;;;;;22.16;17.91;;;;;;;29.30;27.92;98308.66;2017413;78;25627;-83
2021/05/09 11:35:13;;;;;;;14.21;12.63;;;;;;;29.03;27.26;98328.22;2016573;80;20719;-78
2021/05/09 11:38:15;;;;;;;27.11;19.45;;;;;;;28.46;26.84;98300.75;2017142;80;20218;-73
2021/05/09 11:41:18;;;;;;;27.49;25.02;;;;;;;28.83;28.27;98322.09;2016292;80;20209;-75
2021/05/09 11:44:24;;;;;;;218.29;198.65;;;;;;;28.90;26.53;98303.66;2016612;80;20179;-82
2021/05/09 11:47:32;;;;;;;46.58;42.35;;;;;;;28.60;26.82;98310.13;2021168;77;25976;-73
2021/05/09 11:50:37;;;;;;;5.99;5.55;;;;;;;28.16;26.10;98298.28;2022691;80;20226;-73
2021/05/09 11:53:39;;;;;;;17.55;10.41;;;;;;;28.07;26.99;98272.47;2022604;80;20194;-76
2021/05/09 11:57:08;;;;;;;4.76;2.00;;;;;;;28.40;27.28;98265.78;2022876;80;20167;-80
2021/05/09 12:00:12;;;;;;;4.26;1.36;;;;;;;28.24;26.27;98253.88;2021347;80;20191;-75
2021/05/09 12:03:22;;;;;;;2.00;0.85;;;;;;;28.04;27.05;98260.25;2017886;78;28411;-77
2021/05/09 12:06:23;;;;;;;1.58;0.60;;;;;;;28.00;28.17;98259.69;2017003;80;20197;-73
2021/05/09 12:09:26;;;;;;;2.51;0.50;;;;;;;28.27;27.53;98248.25;2017891;80;20580;-74
2021/05/09 12:12:31;;;;;;;5.30;0.39;;;;;;;28.40;26.41;98250.63;2017712;80;20748;-76
2021/05/09 12:15:44;;;;;;;3.47;0.40;;;;;;;28.39;26.84;98256.94;2017101;77;22601;-74
2021/05/09 12:18:46;;;;;;;3.01;0.40;;;;;;;28.55;27.22;98232.28;2022707;80;20175;-78
2021/05/09 12:21:59;;;;;;;1.96;0.40;;;;;;;28.55;25.85;98249.13;2021802;80;20160;-75
2021/05/09 12:25:01;;;;;;;1.56;0.30;;;;;;;28.75;26.91;98241.03;2022418;80;20163;-77
2021/05/09 12:28:27;;;;;;;1.49;0.20;;;;;;;28.88;25.98;98247.69;2022229;80;20225;-76
2021/05/09 12:31:28;;;;;;;110.95;88.94;;;;;;;28.99;25.96;98225.28;2019702;78;21188;-79
2021/05/09 12:34:30;;;;;;;5.36;3.46;;;;;;;29.16;26.38;98226.28;2022707;80;20201;-78
2021/05/09 12:37:36;;;;;;;2.85;1.55;;;;;;;28.88;25.12;98228.16;2021710;80;20188;-75
2021/05/09 12:40:38;;;;;;;2.25;1.08;;;;;;;28.66;26.07;98232.06;2021944;80;20617;-75
2021/05/09 12:43:43;;;;;;;3.64;0.91;;;;;;;28.42;25.79;98229.94;2021883;80;20199;-77
2021/05/09 12:46:48;;;;;;;2.22;0.91;;;;;;;28.57;25.35;98217.78;2018625;78;21456;-74
2021/05/09 12:49:57;;;;;;;4.70;0.69;;;;;;;28.66;26.05;98215.19;2016870;80;20176;-73
2021/05/09 12:52:58;;;;;;;3.59;0.68;;;;;;;28.78;26.34;98209.50;2016870;80;20190;-75
2021/05/09 12:56:32;;;;;;;5.38;0.40;;;;;;;28.76;26.31;98206.13;2015816;80;20193;-76
2021/05/09 12:59:54;;;;;;;3.21;0.50;;;;;;;28.91;26.09;98202.97;2016404;80;20168;-77
2021/05/09 13:02:56;;;;;;;2.40;0.30;;;;;;;29.17;26.96;98175.31;2020574;77;22467;-82
2021/05/09 13:05:58;;;;;;;1.96;0.63;;;;;;;29.40;26.63;98178.34;2021803;80;20203;-85
2021/05/09 13:08:59;;;;;;;0.49;0.30;;;;;;;29.60;25.98;98195.06;2021995;80;20182;-81
2021/05/09 13:12:03;;;;;;;0.63;0.20;;;;;;;29.46;25.58;98179.59;2021524;80;20608;-78
2021/05/09 13:15:10;;;;;;;1.69;0.30;;;;;;;29.19;25.95;98183.19;2020799;80;20203;-79
2021/05/09 13:18:13;;;;;;;2.44;0.20;;;;;;;29.26;26.25;98170.03;2016754;78;22741;-83
2021/05/09 13:21:14;;;;;;;1.10;0.25;;;;;;;29.30;25.34;98176.78;2016571;80;20199;-85
2021/05/09 13:24:19;;;;;;;3.58;0.30;;;;;;;28.97;25.65;98179.16;2016727;80;20711;-86
2021/05/09 13:27:21;;;;;;;1.73;0.38;;;;;;;28.93;25.72;98177.78;2016747;80;20226;-86
2021/05/09 13:30:24;;;;;;;3.08;0.30;;;;;;;28.87;26.11;98186.38;2016670;78;20957;-84
2021/05/09 13:33:25;;;;;;;4.46;0.34;;;;;;;28.58;25.92;98198.09;2022092;80;20553;-79
2021/05/09 13:36:27;;;;;;;0.99;0.29;;;;;;;28.57;25.94;98198.25;2021982;80;20557;-83
2021/05/09 13:39:29;;;;;;;1.46;0.30;;;;;;;28.42;26.04;98189.88;2021618;80;20717;-85
2021/05/09 13:42:31;;;;;;;1.30;0.30;;;;;;;28.26;26.04;98201.19;2021688;80;20211;-83
2021/05/09 13:45:33;;;;;;;2.11;0.34;;;;;;;27.97;25.85;98200.41;2020907;78;20202;-83
2021/05/09 13:48:35;;;;;;;1.39;0.30;;;;;;;27.80;26.10;98185.16;2012984;80;20200;-83
2021/05/09 13:51:37;;;;;;;1.13;0.30;;;;;;;27.90;26.65;98200.16;2016332;80;20233;-84
2021/05/09 13:54:38;;;;;;;3.70;0.30;;;;;;;27.95;26.38;98197.06;2016427;80;20217;-79
2021/05/09 13:57:40;;;;;;;2.81;0.25;;;;;;;27.88;25.88;98187.97;2016824;80;20180;-82
2021/05/09 14:00:42;;;;;;;1.16;0.20;;;;;;;27.66;26.69;98182.00;2016326;78;23542;-79
2021/05/09 14:03:44;;;;;;;1.38;0.25;;;;;;;27.68;27.01;98188.03;2022655;80;20557;-81
2021/05/09 14:06:46;;;;;;;1.56;0.36;;;;;;;27.58;26.02;98186.31;2021513;80;20242;-80
2021/05/09 14:09:48;;;;;;;2.50;0.35;;;;;;;27.62;26.15;98193.88;2022707;80;20491;-80
2021/05/09 14:12:50;;;;;;;1.85;0.20;;;;;;;27.59;26.35;98188.84;2022714;80;20167;-78
2021/05/09 14:15:53;;;;;;;0.94;0.20;;;;;;;27.42;25.97;98178.06;2020118;78;21235;-81
2021/05/09 14:18:54;;;;;;;1.25;0.30;;;;;;;27.32;25.43;98157.59;2017642;80;20668;-79
2021/05/09 14:21:56;;;;;;;3.13;0.21;;;;;;;27.39;26.55;98165.84;2018023;80;20188;-78
2021/05/09 14:24:57;;;;;;;0.93;0.20;;;;;;;27.41;26.55;98163.88;2017500;80;21046;-78